createdAt,value
2019-05-12T00:01:11.560Z,38.02
2019-05-12T00:03:40.412Z,37.65
2019-05-12T00:06:09.208Z,37.78
2019-05-12T00:08:38.200Z,41.48
2019-05-12T00:11:08.930Z,40.05
2019-05-12T00:13:38.535Z,41.37
2019-05-12T00:16:08.808Z,55.50
2019-05-12T00:18:37.913Z,46.13
2019-05-12T00:21:08.796Z,51.05
2019-05-12T00:23:58.219Z,50.40
2019-05-12T00:26:28.282Z,56.50
2019-05-12T00:28:58.835Z,52.70
2019-05-12T00:31:28.150Z,49.23
2019-05-12T00:33:58.688Z,52.70
2019-05-12T00:36:29.282Z,53.63
2019-05-12T00:38:58.049Z,46.58
2019-05-12T00:41:28.371Z,54.38
2019-05-12T00:43:58.290Z,45.28
2019-05-12T00:46:27.857Z,42.93
2019-05-12T00:48:58.503Z,44.73
2019-05-12T00:51:48.543Z,40.75
2019-05-12T00:54:17.830Z,40.40
2019-05-12T00:56:48.178Z,44.70
2019-05-12T00:59:19.031Z,40.00
2019-05-12T01:01:48.178Z,42.27
2019-05-12T01:04:17.646Z,40.12
2019-05-12T01:06:48.610Z,36.58
2019-05-12T01:09:17.627Z,40.95
2019-05-12T01:11:48.148Z,39.27
2019-05-12T01:14:18.655Z,42.90
2019-05-12T01:16:48.599Z,40.78
2019-05-12T01:19:18.598Z,41.63
2019-05-12T01:21:48.993Z,37.85
2019-05-12T01:24:18.780Z,34.63
2019-05-12T01:26:47.800Z,40.45
2019-05-12T01:29:17.673Z,34.55
2019-05-12T01:31:48.648Z,36.35
2019-05-12T01:34:18.187Z,37.53
2019-05-12T01:36:48.358Z,36.80
2019-05-12T01:39:18.736Z,34.43
2019-05-12T01:41:48.184Z,34.73
2019-05-12T01:44:18.403Z,38.38
2019-05-12T01:46:48.349Z,36.13
2019-05-12T01:49:18.654Z,36.93
2019-05-12T01:51:47.739Z,38.05
2019-05-12T01:54:18.714Z,39.08
2019-05-12T01:56:48.310Z,38.33
2019-05-12T01:59:18.519Z,37.15
2019-05-12T02:01:48.817Z,42.15
2019-05-12T02:04:18.199Z,36.50
2019-05-12T02:06:48.564Z,35.83
2019-05-12T02:09:19.217Z,36.45
2019-05-12T02:11:48.406Z,37.75
2019-05-12T02:14:18.283Z,37.25
2019-05-12T02:16:47.721Z,38.88
2019-05-12T02:19:17.842Z,33.55
2019-05-12T02:21:48.738Z,34.48
2019-05-12T02:24:26.620Z,39.05
2019-05-12T02:26:48.655Z,39.92
2019-05-12T02:29:18.312Z,33.75
2019-05-12T02:31:50.042Z,41.02
2019-05-12T02:34:17.720Z,36.58
2019-05-12T02:36:46.552Z,33.63
2019-05-12T02:39:15.338Z,35.88
2019-05-12T02:41:44.933Z,33.55
2019-05-12T02:44:14.912Z,37.85
2019-05-12T02:46:44.795Z,35.03
2019-05-12T02:49:15.538Z,40.48
2019-05-12T02:51:45.543Z,32.10
2019-05-12T02:54:15.252Z,32.58
2019-05-12T02:56:45.902Z,36.35
2019-05-12T02:59:16.199Z,35.88
2019-05-12T03:01:48.392Z,53.58
2019-05-12T03:04:19.287Z,37.63
2019-05-12T03:06:48.167Z,32.10
2019-05-12T03:09:16.963Z,32.38
2019-05-12T03:11:46.331Z,43.28
2019-05-12T03:14:15.860Z,32.75
2019-05-12T03:16:45.515Z,34.40
2019-05-12T03:19:15.084Z,30.88
2019-05-12T03:21:44.368Z,34.95
2019-05-12T03:24:14.479Z,31.12
2019-05-12T03:26:44.974Z,34.75
2019-05-12T03:29:14.922Z,30.48
2019-05-12T03:31:48.465Z,35.08
2019-05-12T03:34:19.405Z,34.13
2019-05-12T03:36:50.807Z,34.35
2019-05-12T03:39:15.460Z,32.53
2019-05-12T03:41:44.704Z,38.33
2019-05-12T03:44:15.058Z,30.65
2019-05-12T03:46:45.555Z,28.52
2019-05-12T03:49:15.532Z,26.77
2019-05-12T03:51:45.628Z,28.20
2019-05-12T03:54:15.410Z,28.47
2019-05-12T03:56:45.139Z,25.27
2019-05-12T03:59:15.140Z,27.15
2019-05-12T04:01:45.279Z,27.48
2019-05-12T04:04:15.250Z,21.27
2019-05-12T04:06:45.397Z,28.45
2019-05-12T04:09:15.413Z,25.95
2019-05-12T04:11:44.646Z,51.48
2019-05-12T04:14:14.774Z,44.55
2019-05-12T04:16:45.162Z,31.55
2019-05-12T04:19:14.891Z,38.85
2019-05-12T04:21:44.790Z,30.27
2019-05-12T04:24:14.365Z,28.80
2019-05-12T04:26:44.926Z,27.15
2019-05-12T04:29:15.461Z,23.90
2019-05-12T04:31:44.604Z,28.70
2019-05-12T04:34:17.979Z,24.75
2019-05-12T04:36:44.866Z,24.57
2019-05-12T04:39:14.903Z,21.00
2019-05-12T04:41:44.775Z,21.85
2019-05-12T04:44:15.239Z,23.02
2019-05-12T04:46:45.256Z,29.00
2019-05-12T04:49:15.701Z,27.55
2019-05-12T04:51:45.231Z,30.10
2019-05-12T04:54:15.225Z,25.82
2019-05-12T04:56:44.736Z,20.60
2019-05-12T04:59:15.704Z,31.95
2019-05-12T05:01:45.309Z,21.42
2019-05-12T05:04:15.468Z,24.52
2019-05-12T05:06:45.080Z,26.70
2019-05-12T05:09:14.609Z,19.67
2019-05-12T05:11:45.144Z,22.45
2019-05-12T05:14:14.527Z,23.15
2019-05-12T05:16:45.216Z,21.33
2019-05-12T05:19:14.003Z,18.90
2019-05-12T05:21:43.752Z,26.12
2019-05-12T05:24:14.231Z,24.37
2019-05-12T05:26:43.653Z,24.75
2019-05-12T05:29:13.577Z,18.57
2019-05-12T05:31:44.210Z,18.92
2019-05-12T05:34:14.939Z,20.27
2019-05-12T05:36:43.959Z,22.87
2019-05-12T05:39:13.908Z,14.85
2019-05-12T05:41:48.884Z,21.40
2019-05-12T05:44:13.966Z,14.20
2019-05-12T05:46:47.721Z,15.78
2019-05-12T05:49:13.445Z,15.53
2019-05-12T05:51:46.746Z,16.65
2019-05-12T05:54:13.729Z,19.57
2019-05-12T05:56:56.977Z,16.37
2019-05-12T05:59:15.045Z,16.30
2019-05-12T06:01:47.150Z,15.63
2019-05-12T06:04:14.236Z,18.20
2019-05-12T06:06:50.914Z,17.62
2019-05-12T06:09:14.168Z,21.37
2019-05-12T06:11:43.761Z,18.85
2019-05-12T06:14:14.100Z,18.92
2019-05-12T06:16:43.449Z,17.02
2019-05-12T06:19:14.089Z,26.02
2019-05-12T06:21:44.084Z,18.15
2019-05-12T06:24:19.842Z,18.27
2019-05-12T06:26:56.601Z,16.65
2019-05-12T06:29:20.356Z,20.02
2019-05-12T06:31:46.120Z,15.60
2019-05-12T06:34:20.535Z,15.90
2019-05-12T06:36:45.468Z,18.42
2019-05-12T06:39:18.610Z,17.62
2019-05-12T06:41:44.787Z,13.95
2019-05-12T06:44:17.816Z,18.30
2019-05-12T06:46:44.288Z,14.38
2019-05-12T06:49:17.544Z,16.17
2019-05-12T06:51:44.481Z,12.90
2019-05-12T06:54:15.127Z,19.32
2019-05-12T06:56:44.146Z,16.12
2019-05-12T06:59:14.756Z,14.55
2019-05-12T07:01:45.032Z,15.65
2019-05-12T07:04:14.198Z,14.50
2019-05-12T07:06:44.189Z,14.00
2019-05-12T07:09:16.276Z,14.53
2019-05-12T07:11:52.852Z,13.80
2019-05-12T07:14:22.422Z,15.23
2019-05-12T07:16:46.332Z,12.07
2019-05-12T07:19:20.692Z,14.65
2019-05-12T07:21:50.743Z,11.40
2019-05-12T07:24:16.604Z,12.75
2019-05-12T07:26:48.035Z,14.25
2019-05-12T07:29:15.989Z,13.78
2019-05-12T07:31:44.948Z,18.57
2019-05-12T07:34:13.786Z,14.03
2019-05-12T07:36:44.317Z,12.85
2019-05-12T07:39:14.009Z,12.07
2019-05-12T07:41:51.044Z,15.03
2019-05-12T07:44:17.987Z,11.88
2019-05-12T07:46:49.478Z,12.58
2019-05-12T07:49:22.030Z,16.35
2019-05-12T07:51:50.051Z,10.43
2019-05-12T07:54:19.542Z,8.93
2019-05-12T07:56:49.850Z,10.53
2019-05-12T07:59:18.609Z,12.07
2019-05-12T08:01:51.889Z,9.85
2019-05-12T08:04:17.868Z,10.00
2019-05-12T08:06:47.023Z,10.58
2019-05-12T08:09:15.961Z,10.63
2019-05-12T08:11:44.732Z,12.65
2019-05-12T08:14:24.715Z,9.55
2019-05-12T08:16:44.080Z,9.30
2019-05-12T08:19:23.194Z,10.25
2019-05-12T08:21:48.582Z,11.85
2019-05-12T08:24:15.283Z,9.10
2019-05-12T08:26:44.079Z,8.53
2019-05-12T08:29:16.903Z,8.88
2019-05-12T08:31:44.051Z,9.53
2019-05-12T08:34:13.646Z,8.50
2019-05-12T08:36:45.091Z,7.83
2019-05-12T08:39:21.075Z,7.37
2019-05-12T08:41:44.899Z,9.33
2019-05-12T08:44:13.820Z,7.75
2019-05-12T08:46:51.605Z,9.13
2019-05-12T08:49:14.383Z,6.25
2019-05-12T08:51:44.235Z,6.08
2019-05-12T08:54:14.177Z,8.48
2019-05-12T08:56:43.650Z,6.95
2019-05-12T08:59:17.490Z,8.35
2019-05-12T09:01:43.849Z,6.87
2019-05-12T09:04:18.005Z,16.27
2019-05-12T09:06:43.678Z,7.55
2019-05-12T09:09:13.951Z,11.30
2019-05-12T09:11:44.037Z,11.97
2019-05-12T09:14:14.639Z,8.58
2019-05-12T09:16:44.086Z,9.85
2019-05-12T09:19:18.293Z,8.33
2019-05-12T09:21:45.354Z,6.70
2019-05-12T09:24:21.701Z,7.55
2019-05-12T09:26:45.067Z,18.82
2019-05-12T09:29:14.490Z,9.45
2019-05-12T09:31:44.032Z,10.80
2019-05-12T09:34:16.228Z,10.78
2019-05-12T09:36:44.236Z,6.08
2019-05-12T09:39:14.182Z,6.17
2019-05-12T09:41:49.510Z,11.83
2019-05-12T09:44:20.355Z,7.78
2019-05-12T09:46:47.709Z,9.28
2019-05-12T09:49:16.793Z,7.80
2019-05-12T09:51:46.134Z,7.35
2019-05-12T09:54:15.185Z,10.08
2019-05-12T09:56:44.395Z,10.15
2019-05-12T09:59:22.813Z,9.45
2019-05-12T10:01:46.147Z,11.60
2019-05-12T10:04:19.319Z,9.20
2019-05-12T10:06:47.695Z,8.90
2019-05-12T10:09:19.834Z,10.82
2019-05-12T10:11:51.858Z,9.23
2019-05-12T10:14:18.736Z,11.40
2019-05-12T10:16:49.804Z,7.10
2019-05-12T10:19:18.754Z,8.93
2019-05-12T10:21:49.145Z,8.30
2019-05-12T10:24:18.462Z,6.78
2019-05-12T10:26:50.564Z,6.70
2019-05-12T10:29:20.788Z,5.17
2019-05-12T10:31:48.774Z,5.33
2019-05-12T10:34:20.222Z,6.17
2019-05-12T10:36:50.456Z,6.83
2019-05-12T10:39:19.533Z,6.95
2019-05-12T10:41:53.915Z,5.20
2019-05-12T10:44:22.202Z,8.38
2019-05-12T10:46:53.729Z,9.73
2019-05-12T10:49:23.336Z,8.85
2019-05-12T10:51:54.012Z,9.20
2019-05-12T10:54:24.183Z,10.32
2019-05-12T10:56:54.557Z,11.85
2019-05-12T10:59:32.701Z,8.80
2019-05-12T11:01:54.196Z,11.35
2019-05-12T11:04:35.297Z,6.65
2019-05-12T11:06:53.946Z,9.90
2019-05-12T11:09:29.361Z,8.68
2019-05-12T11:11:54.088Z,10.18
2019-05-12T11:14:26.327Z,12.80
2019-05-12T11:16:54.956Z,9.10
2019-05-12T11:19:23.840Z,14.83
2019-05-12T11:21:53.653Z,12.25
2019-05-12T11:24:22.848Z,12.93
2019-05-12T11:26:53.656Z,9.23
2019-05-12T11:29:23.532Z,9.48
2019-05-12T11:31:53.901Z,9.18
2019-05-12T11:34:23.408Z,6.62
2019-05-12T11:36:54.368Z,9.45
2019-05-12T11:39:23.670Z,8.40
2019-05-12T11:41:55.208Z,10.20
2019-05-12T11:44:23.298Z,15.25
2019-05-12T11:46:54.469Z,11.15
2019-05-12T11:49:26.449Z,13.65
2019-05-12T11:51:54.300Z,13.08
2019-05-12T11:54:24.243Z,15.32
2019-05-12T11:56:53.702Z,10.60
2019-05-12T11:59:23.764Z,15.98
2019-05-12T12:01:54.019Z,13.40
2019-05-12T12:04:24.785Z,12.40
2019-05-12T12:06:54.306Z,11.60
2019-05-12T12:09:23.321Z,13.00
2019-05-12T12:11:54.693Z,13.70
2019-05-12T12:14:23.855Z,13.72
2019-05-12T12:16:54.431Z,12.53
2019-05-12T12:19:35.007Z,17.05
2019-05-12T12:22:04.256Z,14.45
2019-05-12T12:24:32.149Z,17.20
2019-05-12T12:27:01.182Z,17.80
2019-05-12T12:29:30.014Z,16.05
2019-05-12T12:31:58.866Z,15.35
2019-05-12T12:34:30.315Z,10.72
2019-05-12T12:36:58.301Z,13.48
2019-05-12T12:39:30.299Z,17.82
2019-05-12T12:42:00.969Z,13.55
2019-05-12T12:44:33.948Z,16.90
2019-05-12T12:47:02.021Z,14.38
2019-05-12T12:49:30.851Z,16.17
2019-05-12T12:51:59.753Z,14.30
2019-05-12T12:54:28.545Z,16.17
2019-05-12T12:57:00.248Z,18.23
2019-05-12T12:59:27.872Z,15.55
2019-05-12T13:01:59.156Z,16.40
2019-05-12T13:04:28.906Z,18.02
2019-05-12T13:06:57.922Z,14.35
2019-05-12T13:09:26.756Z,14.15
2019-05-12T13:11:56.593Z,15.55
2019-05-12T13:14:32.179Z,19.48
2019-05-12T13:16:56.306Z,17.48
2019-05-12T13:19:25.189Z,19.70
2019-05-12T13:21:54.042Z,21.12
2019-05-12T13:24:22.831Z,13.43
2019-05-12T13:26:53.909Z,19.15
2019-05-12T13:29:28.293Z,15.58
2019-05-12T13:31:53.864Z,17.52
2019-05-12T13:34:23.712Z,16.05
2019-05-12T13:36:54.443Z,18.07
2019-05-12T13:39:24.211Z,17.32
2019-05-12T13:41:56.268Z,16.97
2019-05-12T13:44:24.082Z,13.93
2019-05-12T13:46:54.722Z,21.95
2019-05-12T13:49:24.456Z,16.40
2019-05-12T13:51:53.802Z,18.55
2019-05-12T13:54:26.039Z,19.00
2019-05-12T13:56:53.543Z,18.92
2019-05-12T13:59:25.495Z,16.67
2019-05-12T14:01:57.859Z,20.37
2019-05-12T14:04:29.563Z,24.52
2019-05-12T14:06:58.516Z,22.00
2019-05-12T14:09:27.377Z,18.55
2019-05-12T14:11:56.314Z,16.77
2019-05-12T14:14:25.362Z,19.05
2019-05-12T14:16:59.393Z,17.82
2019-05-12T14:19:24.775Z,17.85
2019-05-12T14:21:54.258Z,16.97
2019-05-12T14:24:23.335Z,17.37
2019-05-12T14:26:53.377Z,15.95
2019-05-12T14:29:26.575Z,17.00
2019-05-12T14:32:01.703Z,22.95
2019-05-12T14:34:23.695Z,18.30
2019-05-12T14:37:04.984Z,20.85
2019-05-12T14:39:24.455Z,19.37
2019-05-12T14:41:54.630Z,19.32
2019-05-12T14:44:24.482Z,22.40
2019-05-12T14:46:56.676Z,19.92
2019-05-12T14:49:26.446Z,15.83
2019-05-12T14:51:54.748Z,16.05
2019-05-12T14:54:23.960Z,14.50
2019-05-12T14:56:57.536Z,18.17
2019-05-12T14:59:24.313Z,18.27
2019-05-12T15:01:58.951Z,16.62
2019-05-12T15:04:27.824Z,18.20
2019-05-12T15:06:54.219Z,19.73
2019-05-12T15:09:24.619Z,18.85
2019-05-12T15:11:53.641Z,14.43
2019-05-12T15:14:24.504Z,20.15
2019-05-12T15:16:54.182Z,20.92
2019-05-12T15:19:27.822Z,17.60
2019-05-12T15:21:53.972Z,16.82
2019-05-12T15:24:24.551Z,16.65
2019-05-12T15:26:59.352Z,22.02
2019-05-12T15:29:23.999Z,47.25
2019-05-12T15:31:56.546Z,20.45
2019-05-12T15:34:23.825Z,15.63
2019-05-12T15:36:56.197Z,21.85
2019-05-12T15:39:23.370Z,16.37
2019-05-12T15:41:56.611Z,16.37
2019-05-12T15:44:31.174Z,17.35
2019-05-12T15:46:53.559Z,14.60
2019-05-12T15:49:25.979Z,13.93
2019-05-12T15:51:57.010Z,19.35
2019-05-12T15:54:23.502Z,13.08
2019-05-12T15:56:53.302Z,13.20
2019-05-12T15:59:24.007Z,14.95
2019-05-12T16:01:54.461Z,14.55
2019-05-12T16:04:24.886Z,13.65
2019-05-12T16:06:57.747Z,15.20
2019-05-12T16:09:26.650Z,16.70
2019-05-12T16:11:55.493Z,14.05
2019-05-12T16:14:24.289Z,17.23
2019-05-12T16:16:53.570Z,12.70
2019-05-12T16:19:23.460Z,13.65
2019-05-12T16:21:54.123Z,18.98
2019-05-12T16:24:23.653Z,14.63
2019-05-12T16:26:53.400Z,19.60
2019-05-12T16:29:23.225Z,13.45
2019-05-12T16:31:53.691Z,16.25
2019-05-12T16:34:22.810Z,15.70
2019-05-12T16:36:54.814Z,15.28
2019-05-12T16:39:44.255Z,11.05
2019-05-12T16:42:10.795Z,14.60
2019-05-12T16:44:39.826Z,17.98
2019-05-12T16:47:09.015Z,12.80
2019-05-12T16:49:38.272Z,15.08
2019-05-12T16:52:11.017Z,21.97
2019-05-12T16:54:40.238Z,15.88
2019-05-12T16:57:15.609Z,18.80
2019-05-12T16:59:42.347Z,18.48
2019-05-12T17:02:11.359Z,19.55
2019-05-12T17:04:45.737Z,19.17
2019-05-12T17:07:30.909Z,15.50
2019-05-12T17:10:11.173Z,18.23
2019-05-12T17:12:37.093Z,23.92
2019-05-12T17:15:05.374Z,14.55
2019-05-12T17:17:37.963Z,19.62
2019-05-12T17:22:35.877Z,20.82
2019-05-12T17:25:06.027Z,21.80
2019-05-12T17:27:34.861Z,18.62
2019-05-12T17:30:04.992Z,19.55
2019-05-12T17:32:34.102Z,19.23
2019-05-12T17:35:04.186Z,24.95
2019-05-12T17:37:39.770Z,24.35
2019-05-12T17:40:09.352Z,19.62
2019-05-12T17:42:37.278Z,19.50
2019-05-12T17:45:09.290Z,23.10
2019-05-12T17:47:37.081Z,17.15
2019-05-12T17:50:10.383Z,23.67
2019-05-12T17:52:39.499Z,16.90
2019-05-12T17:55:10.783Z,23.80
2019-05-12T17:57:39.566Z,26.23
2019-05-12T18:00:10.848Z,23.40
2019-05-12T18:02:39.965Z,22.73
2019-05-12T18:05:12.281Z,28.00
2019-05-12T18:07:40.422Z,28.65
2019-05-12T18:10:09.460Z,30.60
2019-05-12T18:12:44.799Z,30.05
2019-05-12T18:15:10.665Z,24.10
2019-05-12T18:17:45.116Z,27.02
2019-05-12T18:20:13.782Z,25.48
2019-05-12T18:22:44.893Z,39.30
2019-05-12T18:25:14.638Z,28.70
2019-05-12T18:27:50.298Z,29.23
2019-05-12T18:30:18.400Z,34.00
2019-05-12T18:32:45.250Z,30.40
2019-05-12T18:35:14.283Z,27.52
2019-05-12T18:38:07.925Z,31.52
2019-05-12T18:40:34.183Z,34.10
2019-05-12T18:43:03.889Z,34.60
2019-05-12T18:45:34.088Z,35.43
2019-05-12T18:48:08.409Z,37.60
2019-05-12T18:50:34.384Z,56.35
2019-05-12T18:53:03.370Z,52.30
2019-05-12T18:55:35.965Z,49.63
2019-05-12T18:58:04.340Z,35.75
2019-05-12T19:00:33.953Z,46.85
2019-05-12T19:03:08.046Z,39.25
2019-05-12T19:05:34.926Z,41.10
2019-05-12T19:08:05.521Z,40.70
2019-05-12T19:10:38.606Z,34.58
2019-05-12T19:13:06.600Z,35.52
2019-05-12T19:15:35.832Z,40.92
2019-05-12T19:18:04.694Z,38.75
2019-05-12T19:20:36.152Z,40.50
2019-05-12T19:23:05.671Z,42.25
2019-05-12T19:25:35.875Z,41.92
2019-05-12T19:28:10.073Z,42.48
2019-05-12T19:30:37.134Z,50.75
2019-05-12T19:33:10.567Z,41.42
2019-05-12T19:35:38.077Z,40.33
2019-05-12T19:38:07.041Z,43.78
2019-05-12T19:40:35.899Z,42.50
2019-05-12T19:43:08.260Z,34.20
2019-05-12T19:45:35.376Z,33.88
2019-05-12T19:48:04.616Z,33.60
2019-05-12T19:50:33.510Z,43.83
2019-05-12T19:53:04.130Z,36.50
2019-05-12T19:55:33.787Z,40.20
2019-05-12T19:58:10.753Z,37.45
2019-05-12T20:00:33.676Z,44.15
2019-05-12T20:03:04.494Z,43.00
2019-05-12T20:05:34.339Z,39.42
2019-05-12T20:08:05.561Z,38.78
2019-05-12T20:10:38.077Z,34.18
2019-05-12T20:13:04.950Z,38.60
2019-05-12T20:15:36.705Z,39.75
2019-05-12T20:18:07.287Z,39.15
2019-05-12T20:20:41.592Z,34.50
2019-05-12T20:23:06.707Z,41.08
2019-05-12T20:25:36.776Z,39.65
2019-05-12T20:28:11.198Z,34.92
2019-05-12T20:30:38.822Z,38.98
2019-05-12T20:33:08.222Z,38.67
2019-05-12T20:35:39.184Z,38.25
2019-05-12T20:38:07.757Z,33.05
2019-05-12T20:40:37.722Z,33.05
2019-05-12T20:43:08.475Z,30.75
2019-05-12T20:45:40.681Z,39.23
2019-05-12T20:48:08.003Z,28.02
2019-05-12T20:50:38.604Z,26.07
2019-05-12T20:53:07.406Z,27.58
2019-05-12T20:55:41.168Z,28.57
2019-05-12T20:58:06.757Z,23.92
2019-05-12T21:00:39.030Z,41.40
2019-05-12T21:03:06.114Z,22.32
2019-05-12T21:05:35.021Z,23.45
2019-05-12T21:08:11.451Z,21.10
2019-05-12T21:10:34.339Z,23.12
2019-05-12T21:13:03.148Z,24.32
2019-05-12T21:15:37.353Z,15.30
2019-05-12T21:18:07.079Z,14.68
2019-05-12T21:20:33.717Z,15.15
2019-05-12T21:23:02.711Z,19.07
2019-05-12T21:25:33.759Z,15.03
2019-05-12T21:28:03.053Z,20.40
2019-05-12T21:30:33.917Z,17.48
2019-05-12T21:33:04.792Z,15.78
2019-05-12T21:35:40.677Z,13.55
2019-05-12T21:38:04.467Z,12.75
2019-05-12T21:40:35.125Z,12.30
2019-05-12T21:43:04.223Z,15.23
2019-05-12T21:45:33.963Z,13.93
2019-05-12T21:48:03.687Z,14.55
2019-05-12T21:50:37.945Z,10.80
2019-05-12T21:53:04.363Z,13.32
2019-05-12T21:55:34.223Z,14.18
2019-05-12T21:58:10.628Z,20.82
2019-05-12T22:00:37.326Z,13.00
2019-05-12T22:03:08.149Z,11.30
2019-05-12T22:05:50.366Z,11.75
2019-05-12T22:08:19.763Z,11.05
2019-05-12T22:10:39.232Z,11.63
2019-05-12T22:13:14.373Z,13.62
2019-05-12T22:15:39.152Z,10.43
2019-05-12T22:18:07.907Z,9.65
2019-05-12T22:20:36.845Z,15.32
2019-05-12T22:23:09.947Z,18.07
2019-05-12T22:25:36.538Z,11.95
2019-05-12T22:28:09.785Z,10.43
2019-05-12T22:30:35.881Z,14.83
2019-05-12T22:33:08.846Z,12.37
2019-05-12T22:35:35.223Z,7.08
2019-05-12T22:38:14.971Z,15.30
2019-05-12T22:40:34.663Z,7.72
2019-05-12T22:43:05.741Z,10.30
2019-05-12T22:45:43.857Z,12.63
2019-05-12T22:48:04.609Z,10.98
2019-05-12T22:50:35.355Z,11.15
2019-05-12T22:53:04.662Z,9.90
2019-05-12T22:55:35.953Z,6.65
2019-05-12T22:58:04.098Z,8.33
2019-05-12T23:00:34.231Z,10.82
2019-05-12T23:03:07.085Z,12.28
2019-05-12T23:05:33.880Z,12.23
2019-05-12T23:08:06.287Z,12.60
2019-05-12T23:10:33.348Z,14.85
2019-05-12T23:13:04.972Z,11.90
2019-05-12T23:15:33.538Z,8.98
2019-05-12T23:18:04.032Z,10.75
2019-05-12T23:20:33.338Z,7.97
2019-05-12T23:23:03.938Z,13.03
2019-05-12T23:25:33.785Z,11.22
2019-05-12T23:28:08.372Z,13.32
2019-05-12T23:30:33.303Z,16.62
2019-05-12T23:33:03.830Z,27.10
2019-05-12T23:35:37.257Z,18.87
2019-05-12T23:38:04.425Z,25.72
2019-05-12T23:40:34.529Z,21.85
2019-05-12T23:43:04.197Z,17.57
2019-05-12T23:45:33.909Z,23.30
2019-05-12T23:48:03.993Z,22.00
2019-05-12T23:50:34.597Z,20.32
2019-05-12T23:53:03.957Z,20.48
2019-05-12T23:55:35.033Z,23.38
2019-05-12T23:58:04.447Z,21.68
